Juan de Fuca Strait - east entrance: Past 24 Hour Conditions

 

Victoria Int'l Airport

06:00 AM PDT 28 August 2014
This table is a summary of hourly weather conditions for the past 24 hours.
Date / Time
(PDT)
Wind(knots) Conditions Visibility(km) Pressure(kPa) Air tempC) Relative humidity(%) Dew pointC) Humidex
28 August 2014
6:00 SW 5 Mostly Cloudy 48 101.7 17 79 14 *
5:00 WNW 7 Partly Cloudy 48 101.7 18 77 14 *
4:00 WNW 8 Partly Cloudy 48 101.6 18 72 13 *
3:00 WNW 9 Partly Cloudy 48 101.6 19 71 13 *
2:00 WNW 8 Partly Cloudy 48 101.6 19 71 13 *
1:00 W 6 Partly Cloudy 48 101.5 20 67 13 *
0:00 NNW 6 Partly Cloudy 48 101.5 19 68 13 *
27 August 2014
23:00 W 11 Partly Cloudy 48 101.5 22 59 13 25
22:00 W 4 Mostly Cloudy 48 101.5 17 78 13 *
21:00 ESE 4 Mostly Cloudy 48 101.5 16 82 13 *
20:00 ENE 3 Mostly Cloudy 48 101.5 16 78 12 *
19:00 E 5 Mostly Cloudy 48 101.5 18 73 13 *
18:00 ESE 5 Partly Cloudy 48 101.5 19 71 13 *
17:00 ESE 7 Partly Cloudy 48 101.5 22 58 13 25
16:00 ESE 8 Partly Cloudy 48 101.6 22 61 14 25
15:00 ESE 6 Partly Cloudy 48 101.6 22 60 14 26
14:00 SE 9 Partly Cloudy 48 101.7 22 65 15 25
13:00 SE 8 Partly Cloudy 48 101.7 22 64 15 26
12:00 SE 6 Mainly Sunny 48 101.7 22 66 15 25
11:00 ESE 5 Mainly Sunny 48 101.7 21 67 14 *
10:00 SE 6 Mainly Sunny 48 101.7 18 72 13 *
9:00 SE 3 Mainly Sunny 48 101.7 18 76 13 *
8:00 ESE 3 Mainly Sunny 48 101.7 16 82 13 *
7:00 N 1 Mainly Sunny 48 101.7 13 92 12 *
6:00 N 1 Mainly Clear 48 101.6 13 92 12 *
 
Map of Pacific - Georgia Basin marine weather areas Tsawwassen Ferry Terminal Sentry Shoal - 46131 Halibut Bank - 46146 La Perouse Bank - 46206 Discovery Island Esquimalt Harbour Kelp Reefs Malahat Race Rocks Lightstation Saturna Island Sheringham Point University of Victoria Victoria Gonzales Victoria Int'l Airport Ballenas Islands Campbell River Airport Comox Airport Entrance Island Fanny Island Nanaimo Airport Sisters Islets Estevan Point Tofino Airport Grief Point Powell River Airport Sechelt Point Atkinson Sand Heads Lightstation Vancouver Harbour Vancouver Int'l Airport West Vancouver Port Alberni Howe Sound - Pam Rocks Squamish Airport